North East, Maryland
Current Conditions -  °F | °C
As of 11:55 AM on Thursday 18 Dec 2014 (Local Time) from KAPG Reporting Station
Broken Clouds Broken Clouds  
Wind Chill: 30°   Ceiling: 4000
Heat Index: 39°   Visibility: 7mi
Dew Point: 19°   Wind: 17mph
Humidity: 45%   Direction: 340°NNW
Pressure: 30.12"   Gusts: 29mph
Location:  39.6°N, 75.94°W
Report Text: KAPG 181655Z 34015G25KT 7SM BKN040 04/M07 A3012
Loading
Personal Weather Stations






























Interactive Weather Map New forecast layout! Learn more

10-Day Weather Forecast

Advertisements
Track Severe Weather on mobile